Time;durP1;ratioP1;P1;durP2;ratioP2;P2;SDS_P1;SDS_P2;PMS_P1;PMS_P2;Temp;Humidity;BMP_temperature;BMP_pressure;BME280_temperature;BME280_humidity;BME280_pressure;Samples;Min_cycle;Max_cycle;Signal;HPM_P1;HPM_P2
2021/12/16 00:35:17;;;;;;;51.10;29.60;;;;;;;5.26;94.50;100611.81;431711;1319;141560;-64
2021/12/16 00:45:40;;;;;;;;;;;;;;;5.25;94.65;100602.11;428943;1319;142663;-77
2021/12/16 00:55:49;;;;;;;58.20;33.40;;;;;;;5.27;94.85;100609.70;420290;1320;128327;-76
2021/12/16 01:06:13;;;;;;;51.50;32.20;;;;;;;5.27;94.56;100602.57;431476;1320;142151;-77
2021/12/16 01:48:07;;;;;;;51.80;32.10;;;;;;;5.26;94.96;100587.15;424822;1318;142038;-68
2021/12/16 01:58:17;;;;;;;56.30;34.20;;;;;;;5.29;94.92;100583.77;431402;1318;141921;-69
2021/12/16 02:08:26;;;;;;;55.30;33.30;;;;;;;5.30;94.97;100580.80;422421;1318;141194;-69
2021/12/16 02:29:11;;;;;;;49.20;32.30;;;;;;;5.41;95.05;100575.66;431154;1318;141648;-69
2021/12/16 02:39:21;;;;;;;43.60;27.30;;;;;;;5.44;94.84;100570.71;432006;1318;141333;-70
2021/12/16 02:49:27;;;;;;;45.60;29.50;;;;;;;5.47;94.80;100570.63;431272;1318;141681;-69
2021/12/16 02:59:33;;;;;;;44.70;27.70;;;;;;;5.46;94.63;100575.17;432676;1319;142122;-69
2021/12/16 03:20:09;;;;;;;38.70;26.90;;;;;;;5.48;94.36;100578.42;431167;1319;141569;-69
2021/12/16 03:40:47;;;;;;;35.00;27.30;;;;;;;5.49;94.13;100587.78;432361;1318;192360;-69
2021/12/16 03:50:53;;;;;;;33.10;24.20;;;;;;;5.48;93.81;100587.61;432219;1318;141476;-69
2021/12/16 04:01:05;;;;;;;30.80;24.70;;;;;;;5.43;93.69;100590.88;424911;1316;142125;-69
2021/12/16 04:11:18;;;;;;;28.80;23.40;;;;;;;5.41;93.78;100597.69;432834;1318;142441;-70
2021/12/16 04:21:27;;;;;;;27.50;21.60;;;;;;;5.43;93.58;100588.98;430150;1316;141385;-70
2021/12/16 04:31:33;;;;;;;30.60;23.10;;;;;;;5.41;93.44;100581.55;423161;1317;141299;-69
2021/12/16 04:41:40;;;;;;;29.10;22.80;;;;;;;5.41;93.56;100590.06;425890;1319;141119;-69
2021/12/16 04:51:50;;;;;;;32.70;24.40;;;;;;;5.38;93.34;100587.89;425755;1312;141554;-70
2021/12/16 05:01:58;;;;;;;29.30;23.20;;;;;;;5.37;93.46;100580.10;419871;1319;140969;-69
2021/12/16 05:12:06;;;;;;;28.40;22.70;;;;;;;5.32;93.18;100568.08;430060;1318;142240;-68
2021/12/16 05:32:31;;;;;;;27.90;22.10;;;;;;;5.15;92.96;100559.83;432831;1318;142695;-69
2021/12/16 05:42:38;;;;;;;29.40;21.50;;;;;;;5.13;93.19;100564.20;432140;1319;142158;-70
2021/12/16 05:52:44;;;;;;;27.90;22.10;;;;;;;5.16;93.22;100567.45;431124;1318;142066;-70
2021/12/16 06:02:51;;;;;;;30.90;23.70;;;;;;;5.24;93.01;100569.00;432769;1318;142265;-70
2021/12/16 06:12:56;;;;;;;31.60;23.40;;;;;;;5.19;92.98;100572.26;432294;1319;142057;-70
2021/12/16 06:33:31;;;;;;;28.80;21.50;;;;;;;5.16;93.25;100560.66;429800;1315;142231;-70
2021/12/16 06:43:37;;;;;;;28.70;22.70;;;;;;;5.13;93.31;100563.17;432766;1317;142063;-69
2021/12/16 06:53:50;;;;;;;28.00;21.50;;;;;;;5.14;93.38;100568.88;419045;1318;142300;-69
2021/12/16 07:03:56;;;;;;;30.10;22.00;;;;;;;5.13;93.33;100568.56;427125;1318;141652;-72
2021/12/16 07:14:04;;;;;;;27.70;20.60;;;;;;;5.12;93.48;100577.09;416977;1318;142988;-70
2021/12/16 07:24:14;;;;;;;26.80;21.10;;;;;;;5.17;93.52;100581.14;432043;1315;144458;-61
2021/12/16 07:34:21;;;;;;;25.30;20.10;;;;;;;5.24;93.63;100581.14;432751;1318;145036;-61
2021/12/16 07:44:27;;;;;;;26.20;20.10;;;;;;;5.30;93.51;100582.52;431083;1318;142244;-61
2021/12/16 07:54:33;;;;;;;26.50;19.80;;;;;;;5.39;93.42;100586.80;430394;1318;145280;-61
2021/12/16 08:04:44;;;;;;;22.40;17.90;;;;;;;5.46;93.42;100585.23;432200;1318;143163;-61
2021/12/16 08:14:51;;;;;;;26.80;20.30;;;;;;;5.48;93.40;100593.01;432853;1318;142761;-61
2021/12/16 08:24:57;;;;;;;24.60;20.00;;;;;;;5.48;93.26;100591.61;432826;1321;142073;-61
2021/12/16 08:35:04;;;;;;;22.30;17.30;;;;;;;5.47;93.29;100598.92;431104;1318;142744;-61
2021/12/16 08:45:20;;;;;;;26.80;21.40;;;;;;;5.45;93.35;100609.06;431980;1318;142405;-60
2021/12/16 08:55:27;;;;;;;27.00;21.20;;;;;;;5.45;93.40;100616.02;428003;1315;142162;-60
2021/12/16 09:05:33;;;;;;;26.80;19.60;;;;;;;5.48;93.56;100609.85;425417;1318;144744;-61
2021/12/16 09:15:44;;;;;;;26.90;18.60;;;;;;;5.51;93.66;100608.23;431863;1317;142702;-61
2021/12/16 09:25:51;;;;;;;27.60;19.90;;;;;;;5.50;93.77;100611.71;432811;1318;142573;-60
2021/12/16 09:36:00;;;;;;;21.90;17.70;;;;;;;5.51;93.98;100606.98;427885;1321;142777;-62
2021/12/16 09:46:09;;;;;;;21.30;16.70;;;;;;;5.60;93.87;100600.33;430644;1320;145390;-61
2021/12/16 09:56:15;;;;;;;23.30;16.80;;;;;;;5.71;94.02;100595.52;432844;1318;145950;-61
2021/12/16 10:06:22;;;;;;;22.20;14.30;;;;;;;5.80;93.90;100585.02;431958;1316;142978;-61
2021/12/16 10:27:09;;;;;;;18.90;13.20;;;;;;;5.95;93.79;100573.63;427658;1318;144987;-63
2021/12/16 10:37:15;;;;;;;17.80;12.80;;;;;;;5.99;93.80;100571.63;431107;1318;145493;-61
2021/12/16 10:47:20;;;;;;;19.70;14.00;;;;;;;5.95;93.79;100587.38;432623;1318;143870;-61
2021/12/16 10:57:30;;;;;;;16.80;11.20;;;;;;;5.90;94.02;100592.75;430201;1317;143123;-61
2021/12/16 11:07:38;;;;;;;16.60;10.70;;;;;;;5.96;94.18;100596.04;431823;1318;142088;-61
2021/12/16 11:17:46;;;;;;;14.10;10.80;;;;;;;5.97;94.18;100600.02;427950;1318;143851;-61
2021/12/16 11:27:52;;;;;;;;;;;;;;;5.94;94.24;100578.88;432058;1319;144667;-61
2021/12/16 11:38:01;;;;;;;18.40;13.30;;;;;;;6.01;94.24;100565.15;432821;1318;128706;-61
2021/12/16 11:48:09;;;;;;;17.70;13.10;;;;;;;6.02;94.24;100560.95;430446;1319;143059;-61
2021/12/16 11:58:15;;;;;;;15.70;10.40;;;;;;;6.03;94.21;100563.36;430622;1316;143389;-62
2021/12/16 12:08:23;;;;;;;19.00;13.70;;;;;;;6.11;94.18;100561.23;429458;1321;142388;-62
2021/12/16 12:18:43;;;;;;;16.30;11.80;;;;;;;6.14;94.16;100562.00;427909;1318;143245;-62
2021/12/16 12:28:52;;;;;;;12.80;10.60;;;;;;;6.11;93.92;100552.87;431139;1317;142445;-61
2021/12/16 12:38:58;;;;;;;17.00;10.20;;;;;;;6.13;93.89;100551.95;415443;1319;143209;-59
2021/12/16 12:49:08;;;;;;;12.20;9.80;;;;;;;6.08;93.90;100581.14;427961;1318;144103;-61
2021/12/16 12:59:16;;;;;;;12.70;9.90;;;;;;;6.03;93.84;100574.33;428057;1318;141698;-60
2021/12/16 13:09:34;;;;;;;15.00;11.90;;;;;;;6.01;93.66;100591.76;419372;1319;142234;-61
2021/12/16 13:30:27;;;;;;;14.50;11.30;;;;;;;6.01;93.32;100597.81;432104;1318;143070;-61
2021/12/16 13:40:36;;;;;;;11.00;9.50;;;;;;;6.02;92.92;100600.74;432792;1319;145923;-62
2021/12/16 14:01:32;;;;;;;9.40;8.30;;;;;;;5.85;91.99;100562.11;432861;1318;142793;-61
2021/12/16 14:43:15;;;;;;;5.10;4.50;;;;;;;5.18;91.67;100595.86;424883;1319;142877;-61
2021/12/16 14:53:30;;;;;;;6.10;5.10;;;;;;;4.91;91.33;100598.62;431098;1318;141936;-61
2021/12/16 15:03:40;;;;;;;5.80;4.60;;;;;;;4.63;91.06;100591.27;431779;1319;142781;-61
2021/12/16 15:13:51;;;;;;;5.70;4.60;;;;;;;4.41;91.47;100607.56;432822;1319;141706;-61
2021/12/16 15:44:48;;;;;;;6.30;4.50;;;;;;;4.84;90.78;100676.70;431287;1314;142297;-61
2021/12/16 15:54:56;;;;;;;8.00;4.60;;;;;;;4.91;90.66;100672.38;432871;1320;142894;-61
2021/12/16 16:05:00;;;;;;;;;;;;;;;4.97;90.13;100675.00;432827;1320;142226;-60
2021/12/16 16:15:17;;;;;;;6.30;5.00;;;;;;;4.90;89.77;100668.05;432245;1318;129219;-62
2021/12/16 16:25:23;;;;;;;7.40;4.50;;;;;;;4.67;89.72;100668.73;424471;1321;141575;-61
2021/12/16 16:35:29;;;;;;;5.60;3.80;;;;;;;4.66;89.74;100668.23;431028;1319;142037;-61
2021/12/16 16:45:35;;;;;;;4.50;3.50;;;;;;;4.67;89.66;100670.30;430458;1319;142156;-61
2021/12/16 16:55:47;;;;;;;5.70;4.10;;;;;;;4.74;89.41;100664.40;426844;1318;141823;-61
2021/12/16 17:05:57;;;;;;;5.10;3.80;;;;;;;4.76;89.27;100669.55;431162;1321;142029;-62
2021/12/16 17:26:43;;;;;;;6.80;4.10;;;;;;;4.66;89.16;100709.69;430003;1319;142035;-62
2021/12/16 17:36:53;;;;;;;7.60;4.50;;;;;;;4.48;89.15;100702.42;430268;1319;142897;-61
2021/12/16 17:47:08;;;;;;;7.60;5.20;;;;;;;4.36;89.36;100727.48;432698;1318;142612;-61
2021/12/16 17:57:21;;;;;;;8.50;5.40;;;;;;;4.32;89.37;100752.66;431960;1318;142197;-61
2021/12/16 18:07:28;;;;;;;7.60;5.70;;;;;;;4.28;89.23;100761.08;432748;1319;142680;-61
2021/12/16 18:17:39;;;;;;;8.60;4.60;;;;;;;4.22;89.05;100759.80;430168;1320;142950;-60
2021/12/16 18:27:48;;;;;;;9.30;6.80;;;;;;;4.19;89.18;100757.77;432003;1317;141983;-61
2021/12/16 18:37:55;;;;;;;9.90;5.30;;;;;;;4.18;89.08;100752.59;431136;1318;141664;-60
2021/12/16 18:48:06;;;;;;;11.80;5.20;;;;;;;4.16;89.36;100750.38;432116;1319;143641;-62
2021/12/16 18:58:12;;;;;;;11.60;5.30;;;;;;;4.17;88.77;100752.09;432108;1319;142714;-60
2021/12/16 19:08:18;;;;;;;9.80;4.50;;;;;;;4.16;88.52;100753.67;431525;1319;143171;-61
2021/12/16 19:18:24;;;;;;;9.00;4.80;;;;;;;4.17;88.13;100747.94;430280;1319;144123;-60
2021/12/16 19:28:30;;;;;;;8.30;3.80;;;;;;;4.18;88.06;100746.19;430796;1318;213345;-60
2021/12/16 19:38:38;;;;;;;7.60;3.80;;;;;;;4.18;87.08;100739.06;432661;1318;142817;-61
2021/12/16 19:48:44;;;;;;;12.00;4.50;;;;;;;4.17;86.60;100748.81;417587;1318;142950;-62
2021/12/16 19:58:50;;;;;;;10.10;4.40;;;;;;;4.14;86.31;100762.02;431052;1316;143035;-62
2021/12/16 20:08:58;;;;;;;10.80;4.10;;;;;;;4.10;86.12;100760.20;431933;1316;150746;-61
2021/12/16 20:19:06;;;;;;;9.50;5.00;;;;;;;4.07;85.69;100752.98;432525;1319;143554;-60
2021/12/16 20:29:16;;;;;;;12.40;4.20;;;;;;;4.03;85.31;100757.73;428174;1320;142353;-60
2021/12/16 20:39:26;;;;;;;8.90;3.90;;;;;;;3.99;85.22;100774.26;431808;1318;142645;-61
2021/12/16 20:49:36;;;;;;;9.50;3.80;;;;;;;3.97;84.96;100774.80;431112;1318;142091;-61
2021/12/16 20:59:48;;;;;;;8.80;3.90;;;;;;;3.96;84.89;100773.63;432500;1319;142219;-61
2021/12/16 21:09:55;;;;;;;13.20;4.90;;;;;;;3.92;84.79;100772.47;430570;1319;202639;-61
2021/12/16 21:20:02;;;;;;;13.00;3.90;;;;;;;3.89;84.56;100769.40;423651;1319;151779;-61
2021/12/16 21:30:10;;;;;;;7.00;4.00;;;;;;;3.83;84.32;100763.45;431749;1318;142516;-61
2021/12/16 21:40:16;;;;;;;10.00;4.10;;;;;;;3.77;84.44;100765.95;432568;1318;142578;-63
2021/12/16 21:50:27;;;;;;;11.50;4.00;;;;;;;3.74;84.42;100761.51;432708;1319;144264;-58
2021/12/16 22:00:33;;;;;;;17.60;5.10;;;;;;;3.71;84.03;100764.33;431980;1318;145283;-58
2021/12/16 22:10:41;;;;;;;11.50;3.60;;;;;;;3.66;83.89;100754.73;432773;1314;141689;-59
2021/12/16 22:20:50;;;;;;;11.00;3.50;;;;;;;3.63;84.08;100750.27;432344;1318;184439;-59
2021/12/16 22:30:56;;;;;;;12.10;4.30;;;;;;;3.59;84.02;100749.81;431105;1316;142388;-63
2021/12/16 22:41:05;;;;;;;16.00;4.50;;;;;;;3.57;84.43;100742.73;432337;1316;142516;-62
2021/12/16 22:51:14;;;;;;;12.80;4.80;;;;;;;3.56;84.14;100746.92;428031;1318;144057;-63
2021/12/16 23:01:40;;;;;;;10.80;3.70;;;;;;;3.56;84.35;100747.09;430898;1318;142649;-62
2021/12/16 23:11:46;;;;;;;18.80;5.40;;;;;;;3.51;84.23;100755.83;418286;1318;142478;-63
2021/12/16 23:32:16;;;;;;;12.50;4.60;;;;;;;3.38;84.14;100747.73;431172;1320;142210;-61
